sensor_id;sensor_type;location;lat;lon;timestamp;P1;durP1;ratioP1;P2;durP2;ratioP2
3971;SDS011;2000;47.572;14.202;2024-02-23T00:02:21;1.00;;;0.80;;
3971;SDS011;2000;47.572;14.202;2024-02-23T00:04:48;1.27;;;0.87;;
3971;SDS011;2000;47.572;14.202;2024-02-23T00:07:15;1.23;;;0.67;;
3971;SDS011;2000;47.572;14.202;2024-02-23T00:09:42;1.50;;;0.73;;
3971;SDS011;2000;47.572;14.202;2024-02-23T00:12:09;1.47;;;1.00;;
3971;SDS011;2000;47.572;14.202;2024-02-23T00:14:36;0.97;;;0.97;;
3971;SDS011;2000;47.572;14.202;2024-02-23T00:17:03;0.77;;;0.67;;
3971;SDS011;2000;47.572;14.202;2024-02-23T00:19:31;0.50;;;0.37;;
3971;SDS011;2000;47.572;14.202;2024-02-23T00:21:58;2.47;;;0.60;;
3971;SDS011;2000;47.572;14.202;2024-02-23T00:24:28;2.27;;;0.50;;
3971;SDS011;2000;47.572;14.202;2024-02-23T00:26:55;0.60;;;0.60;;
3971;SDS011;2000;47.572;14.202;2024-02-23T00:29:22;2.23;;;1.10;;
3971;SDS011;2000;47.572;14.202;2024-02-23T00:31:50;1.97;;;1.87;;
3971;SDS011;2000;47.572;14.202;2024-02-23T00:34:17;2.83;;;1.60;;
3971;SDS011;2000;47.572;14.202;2024-02-23T00:36:44;4.93;;;1.40;;
3971;SDS011;2000;47.572;14.202;2024-02-23T00:39:11;3.90;;;2.20;;
3971;SDS011;2000;47.572;14.202;2024-02-23T00:41:38;4.20;;;1.57;;
3971;SDS011;2000;47.572;14.202;2024-02-23T00:44:06;4.90;;;2.97;;
3971;SDS011;2000;47.572;14.202;2024-02-23T00:46:33;6.50;;;2.70;;
3971;SDS011;2000;47.572;14.202;2024-02-23T00:49:00;5.60;;;3.83;;
3971;SDS011;2000;47.572;14.202;2024-02-23T00:51:29;3.93;;;2.70;;
3971;SDS011;2000;47.572;14.202;2024-02-23T00:53:56;3.70;;;2.97;;
3971;SDS011;2000;47.572;14.202;2024-02-23T00:56:23;4.43;;;2.43;;
3971;SDS011;2000;47.572;14.202;2024-02-23T00:59:01;4.87;;;1.97;;
3971;SDS011;2000;47.572;14.202;2024-02-23T01:01:28;4.90;;;2.63;;
3971;SDS011;2000;47.572;14.202;2024-02-23T01:03:55;6.90;;;2.07;;
3971;SDS011;2000;47.572;14.202;2024-02-23T01:06:23;4.73;;;2.57;;
3971;SDS011;2000;47.572;14.202;2024-02-23T01:08:51;3.57;;;2.23;;
3971;SDS011;2000;47.572;14.202;2024-02-23T01:11:18;4.13;;;2.40;;
3971;SDS011;2000;47.572;14.202;2024-02-23T01:13:45;1.80;;;1.00;;
3971;SDS011;2000;47.572;14.202;2024-02-23T01:16:12;5.07;;;1.60;;
3971;SDS011;2000;47.572;14.202;2024-02-23T01:18:39;4.50;;;1.13;;
3971;SDS011;2000;47.572;14.202;2024-02-23T01:21:06;1.80;;;1.00;;
3971;SDS011;2000;47.572;14.202;2024-02-23T01:23:33;3.33;;;1.07;;
3971;SDS011;2000;47.572;14.202;2024-02-23T01:26:00;0.70;;;0.70;;
3971;SDS011;2000;47.572;14.202;2024-02-23T01:28:29;4.00;;;0.70;;
3971;SDS011;2000;47.572;14.202;2024-02-23T01:30:56;2.13;;;0.93;;
3971;SDS011;2000;47.572;14.202;2024-02-23T01:33:23;2.30;;;0.97;;
3971;SDS011;2000;47.572;14.202;2024-02-23T01:35:50;2.80;;;1.60;;
3971;SDS011;2000;47.572;14.202;2024-02-23T01:38:17;13.27;;;1.93;;
3971;SDS011;2000;47.572;14.202;2024-02-23T01:40:48;0.60;;;0.60;;
3971;SDS011;2000;47.572;14.202;2024-02-23T01:43:15;1.23;;;0.67;;
3971;SDS011;2000;47.572;14.202;2024-02-23T01:45:42;0.93;;;0.50;;
3971;SDS011;2000;47.572;14.202;2024-02-23T01:48:09;0.40;;;0.40;;
3971;SDS011;2000;47.572;14.202;2024-02-23T01:50:37;2.43;;;0.40;;
3971;SDS011;2000;47.572;14.202;2024-02-23T01:53:04;2.63;;;0.47;;
3971;SDS011;2000;47.572;14.202;2024-02-23T01:55:32;1.03;;;0.50;;
3971;SDS011;2000;47.572;14.202;2024-02-23T01:58:02;0.67;;;0.60;;
3971;SDS011;2000;47.572;14.202;2024-02-23T02:00:34;0.77;;;0.60;;
3971;SDS011;2000;47.572;14.202;2024-02-23T02:03:02;0.80;;;0.40;;
3971;SDS011;2000;47.572;14.202;2024-02-23T02:05:29;1.03;;;0.30;;
3971;SDS011;2000;47.572;14.202;2024-02-23T02:07:56;2.73;;;0.40;;
3971;SDS011;2000;47.572;14.202;2024-02-23T02:10:27;0.50;;;0.20;;
3971;SDS011;2000;47.572;14.202;2024-02-23T02:12:54;0.80;;;0.50;;
3971;SDS011;2000;47.572;14.202;2024-02-23T02:15:21;0.77;;;0.50;;
3971;SDS011;2000;47.572;14.202;2024-02-23T02:17:49;0.50;;;0.40;;
3971;SDS011;2000;47.572;14.202;2024-02-23T02:20:16;0.93;;;0.43;;
3971;SDS011;2000;47.572;14.202;2024-02-23T02:22:45;0.30;;;0.30;;
3971;SDS011;2000;47.572;14.202;2024-02-23T02:25:13;1.33;;;0.30;;
3971;SDS011;2000;47.572;14.202;2024-02-23T02:27:42;4.63;;;0.40;;
3971;SDS011;2000;47.572;14.202;2024-02-23T02:30:12;0.43;;;0.30;;
3971;SDS011;2000;47.572;14.202;2024-02-23T02:32:39;0.40;;;0.40;;
3971;SDS011;2000;47.572;14.202;2024-02-23T02:35:07;4.83;;;0.30;;
3971;SDS011;2000;47.572;14.202;2024-02-23T02:37:37;1.10;;;0.37;;
3971;SDS011;2000;47.572;14.202;2024-02-23T02:40:04;0.70;;;0.30;;
3971;SDS011;2000;47.572;14.202;2024-02-23T02:42:32;1.03;;;0.30;;
3971;SDS011;2000;47.572;14.202;2024-02-23T02:44:59;0.63;;;0.30;;
3971;SDS011;2000;47.572;14.202;2024-02-23T02:47:27;0.30;;;0.23;;
3971;SDS011;2000;47.572;14.202;2024-02-23T02:49:54;0.53;;;0.30;;
3971;SDS011;2000;47.572;14.202;2024-02-23T02:52:21;0.30;;;0.30;;
3971;SDS011;2000;47.572;14.202;2024-02-23T02:54:50;0.40;;;0.30;;
3971;SDS011;2000;47.572;14.202;2024-02-23T02:57:17;2.00;;;0.40;;
3971;SDS011;2000;47.572;14.202;2024-02-23T02:59:44;3.27;;;0.40;;
3971;SDS011;2000;47.572;14.202;2024-02-23T03:02:12;6.17;;;2.23;;
3971;SDS011;2000;47.572;14.202;2024-02-23T03:04:45;3.67;;;1.40;;
3971;SDS011;2000;47.572;14.202;2024-02-23T03:07:13;1.80;;;1.03;;
3971;SDS011;2000;47.572;14.202;2024-02-23T03:09:40;4.13;;;1.53;;
3971;SDS011;2000;47.572;14.202;2024-02-23T03:12:08;2.17;;;1.57;;
3971;SDS011;2000;47.572;14.202;2024-02-23T03:14:35;0.93;;;0.83;;
3971;SDS011;2000;47.572;14.202;2024-02-23T03:17:07;1.47;;;0.93;;
3971;SDS011;2000;47.572;14.202;2024-02-23T03:19:36;1.90;;;1.23;;
3971;SDS011;2000;47.572;14.202;2024-02-23T03:22:04;1.40;;;0.93;;
3971;SDS011;2000;47.572;14.202;2024-02-23T03:24:31;0.63;;;0.60;;
3971;SDS011;2000;47.572;14.202;2024-02-23T03:26:58;2.07;;;1.00;;
3971;SDS011;2000;47.572;14.202;2024-02-23T03:29:26;0.67;;;0.47;;
3971;SDS011;2000;47.572;14.202;2024-02-23T03:31:56;1.47;;;0.40;;
3971;SDS011;2000;47.572;14.202;2024-02-23T03:34:24;1.73;;;0.60;;
3971;SDS011;2000;47.572;14.202;2024-02-23T03:36:51;0.83;;;0.73;;
3971;SDS011;2000;47.572;14.202;2024-02-23T03:39:18;2.00;;;0.90;;
3971;SDS011;2000;47.572;14.202;2024-02-23T03:41:45;1.67;;;1.57;;
3971;SDS011;2000;47.572;14.202;2024-02-23T03:44:12;0.97;;;0.70;;
3971;SDS011;2000;47.572;14.202;2024-02-23T03:46:39;1.07;;;0.70;;
3971;SDS011;2000;47.572;14.202;2024-02-23T03:49:06;0.60;;;0.60;;
3971;SDS011;2000;47.572;14.202;2024-02-23T03:51:33;0.57;;;0.50;;
3971;SDS011;2000;47.572;14.202;2024-02-23T03:54:03;1.33;;;0.87;;
3971;SDS011;2000;47.572;14.202;2024-02-23T03:56:30;3.97;;;1.23;;
3971;SDS011;2000;47.572;14.202;2024-02-23T03:59:04;2.00;;;0.93;;
3971;SDS011;2000;47.572;14.202;2024-02-23T04:01:31;1.80;;;1.10;;
3971;SDS011;2000;47.572;14.202;2024-02-23T04:03:58;17.97;;;1.57;;
3971;SDS011;2000;47.572;14.202;2024-02-23T04:06:25;1.53;;;1.00;;
3971;SDS011;2000;47.572;14.202;2024-02-23T04:08:52;7.93;;;1.60;;
3971;SDS011;2000;47.572;14.202;2024-02-23T04:11:19;2.43;;;1.40;;
3971;SDS011;2000;47.572;14.202;2024-02-23T04:13:47;0.70;;;0.50;;
3971;SDS011;2000;47.572;14.202;2024-02-23T04:16:17;1.13;;;0.50;;
3971;SDS011;2000;47.572;14.202;2024-02-23T04:18:44;0.60;;;0.60;;
3971;SDS011;2000;47.572;14.202;2024-02-23T04:21:12;0.73;;;0.60;;
3971;SDS011;2000;47.572;14.202;2024-02-23T04:23:39;1.37;;;1.00;;
3971;SDS011;2000;47.572;14.202;2024-02-23T04:26:05;2.50;;;1.00;;
3971;SDS011;2000;47.572;14.202;2024-02-23T04:28:33;1.60;;;1.00;;
3971;SDS011;2000;47.572;14.202;2024-02-23T04:31:00;17.47;;;1.97;;
3971;SDS011;2000;47.572;14.202;2024-02-23T04:33:27;28.53;;;5.07;;
3971;SDS011;2000;47.572;14.202;2024-02-23T04:35:54;8.73;;;4.43;;
3971;SDS011;2000;47.572;14.202;2024-02-23T04:38:21;5.40;;;2.80;;
3971;SDS011;2000;47.572;14.202;2024-02-23T04:40:48;5.93;;;0.90;;
3971;SDS011;2000;47.572;14.202;2024-02-23T04:43:15;3.23;;;0.97;;
3971;SDS011;2000;47.572;14.202;2024-02-23T04:45:42;1.43;;;0.80;;
3971;SDS011;2000;47.572;14.202;2024-02-23T04:48:09;1.13;;;0.60;;
3971;SDS011;2000;47.572;14.202;2024-02-23T04:50:36;1.63;;;0.83;;
3971;SDS011;2000;47.572;14.202;2024-02-23T04:53:04;2.10;;;0.77;;
3971;SDS011;2000;47.572;14.202;2024-02-23T04:55:31;2.40;;;1.10;;
3971;SDS011;2000;47.572;14.202;2024-02-23T04:57:58;1.43;;;0.70;;
3971;SDS011;2000;47.572;14.202;2024-02-23T05:00:25;2.13;;;0.90;;
3971;SDS011;2000;47.572;14.202;2024-02-23T05:03:02;1.00;;;0.60;;
3971;SDS011;2000;47.572;14.202;2024-02-23T05:05:30;1.83;;;0.80;;
3971;SDS011;2000;47.572;14.202;2024-02-23T05:07:58;0.87;;;0.50;;
3971;SDS011;2000;47.572;14.202;2024-02-23T05:10:26;1.50;;;0.60;;
3971;SDS011;2000;47.572;14.202;2024-02-23T05:12:53;1.37;;;0.90;;
3971;SDS011;2000;47.572;14.202;2024-02-23T05:15:20;3.70;;;1.53;;
3971;SDS011;2000;47.572;14.202;2024-02-23T05:17:47;1.07;;;0.50;;
3971;SDS011;2000;47.572;14.202;2024-02-23T05:20:14;1.70;;;1.00;;
3971;SDS011;2000;47.572;14.202;2024-02-23T05:22:42;1.70;;;0.87;;
3971;SDS011;2000;47.572;14.202;2024-02-23T05:25:09;0.90;;;0.63;;
3971;SDS011;2000;47.572;14.202;2024-02-23T05:27:36;1.43;;;0.40;;
3971;SDS011;2000;47.572;14.202;2024-02-23T05:30:03;0.40;;;0.30;;
3971;SDS011;2000;47.572;14.202;2024-02-23T05:32:30;0.63;;;0.47;;
3971;SDS011;2000;47.572;14.202;2024-02-23T05:34:57;2.30;;;0.77;;
3971;SDS011;2000;47.572;14.202;2024-02-23T05:37:25;5.90;;;0.60;;
3971;SDS011;2000;47.572;14.202;2024-02-23T05:39:53;0.60;;;0.50;;
3971;SDS011;2000;47.572;14.202;2024-02-23T05:42:20;2.27;;;0.40;;
3971;SDS011;2000;47.572;14.202;2024-02-23T05:44:47;2.77;;;0.57;;
3971;SDS011;2000;47.572;14.202;2024-02-23T05:47:17;5.70;;;0.57;;
3971;SDS011;2000;47.572;14.202;2024-02-23T05:49:44;0.63;;;0.63;;
3971;SDS011;2000;47.572;14.202;2024-02-23T05:52:11;1.90;;;1.20;;
3971;SDS011;2000;47.572;14.202;2024-02-23T05:54:38;7.17;;;2.57;;
3971;SDS011;2000;47.572;14.202;2024-02-23T05:57:05;3.00;;;1.77;;
3971;SDS011;2000;47.572;14.202;2024-02-23T05:59:32;2.60;;;1.40;;
3971;SDS011;2000;47.572;14.202;2024-02-23T06:01:59;1.43;;;1.33;;
3971;SDS011;2000;47.572;14.202;2024-02-23T06:04:26;3.50;;;1.30;;
3971;SDS011;2000;47.572;14.202;2024-02-23T06:06:54;3.50;;;1.27;;
3971;SDS011;2000;47.572;14.202;2024-02-23T06:09:21;1.77;;;1.60;;
3971;SDS011;2000;47.572;14.202;2024-02-23T06:11:48;9.10;;;5.90;;
3971;SDS011;2000;47.572;14.202;2024-02-23T06:14:15;6.10;;;4.77;;
3971;SDS011;2000;47.572;14.202;2024-02-23T06:16:42;5.47;;;3.80;;
3971;SDS011;2000;47.572;14.202;2024-02-23T06:19:10;6.90;;;2.67;;
3971;SDS011;2000;47.572;14.202;2024-02-23T06:21:37;0.70;;;0.70;;
3971;SDS011;2000;47.572;14.202;2024-02-23T06:24:05;3.43;;;0.80;;
3971;SDS011;2000;47.572;14.202;2024-02-23T06:26:34;5.70;;;0.90;;
3971;SDS011;2000;47.572;14.202;2024-02-23T06:29:02;1.90;;;1.40;;
3971;SDS011;2000;47.572;14.202;2024-02-23T06:31:30;2.70;;;1.40;;
3971;SDS011;2000;47.572;14.202;2024-02-23T06:33:57;7.33;;;2.27;;
3971;SDS011;2000;47.572;14.202;2024-02-23T06:36:24;3.30;;;1.60;;
3971;SDS011;2000;47.572;14.202;2024-02-23T06:38:51;5.20;;;3.07;;
3971;SDS011;2000;47.572;14.202;2024-02-23T06:41:18;4.23;;;2.60;;
3971;SDS011;2000;47.572;14.202;2024-02-23T06:43:45;4.10;;;2.03;;
3971;SDS011;2000;47.572;14.202;2024-02-23T06:46:12;4.40;;;2.23;;
3971;SDS011;2000;47.572;14.202;2024-02-23T06:48:39;3.20;;;1.57;;
3971;SDS011;2000;47.572;14.202;2024-02-23T06:51:07;1.90;;;1.00;;
3971;SDS011;2000;47.572;14.202;2024-02-23T06:53:36;1.33;;;1.07;;
3971;SDS011;2000;47.572;14.202;2024-02-23T06:56:04;1.23;;;0.60;;
3971;SDS011;2000;47.572;14.202;2024-02-23T06:58:32;2.93;;;0.67;;
3971;SDS011;2000;47.572;14.202;2024-02-23T07:00:59;1.33;;;0.30;;
3971;SDS011;2000;47.572;14.202;2024-02-23T07:03:27;0.97;;;0.30;;
3971;SDS011;2000;47.572;14.202;2024-02-23T07:05:56;0.77;;;0.47;;
3971;SDS011;2000;47.572;14.202;2024-02-23T07:08:24;0.80;;;0.30;;
3971;SDS011;2000;47.572;14.202;2024-02-23T07:10:51;1.50;;;0.40;;
3971;SDS011;2000;47.572;14.202;2024-02-23T07:13:18;0.80;;;0.30;;
3971;SDS011;2000;47.572;14.202;2024-02-23T07:15:46;0.30;;;0.20;;
3971;SDS011;2000;47.572;14.202;2024-02-23T07:18:13;1.40;;;0.90;;
3971;SDS011;2000;47.572;14.202;2024-02-23T07:20:40;1.37;;;0.90;;
3971;SDS011;2000;47.572;14.202;2024-02-23T07:23:07;2.00;;;0.60;;
3971;SDS011;2000;47.572;14.202;2024-02-23T07:25:35;1.30;;;1.20;;
3971;SDS011;2000;47.572;14.202;2024-02-23T07:28:02;1.20;;;1.00;;
3971;SDS011;2000;47.572;14.202;2024-02-23T07:30:29;0.73;;;0.73;;
3971;SDS011;2000;47.572;14.202;2024-02-23T07:32:56;1.23;;;0.70;;
3971;SDS011;2000;47.572;14.202;2024-02-23T07:35:24;5.13;;;1.03;;
3971;SDS011;2000;47.572;14.202;2024-02-23T07:37:51;0.90;;;0.60;;
3971;SDS011;2000;47.572;14.202;2024-02-23T07:40:18;1.50;;;0.80;;
3971;SDS011;2000;47.572;14.202;2024-02-23T07:42:48;1.90;;;1.00;;
3971;SDS011;2000;47.572;14.202;2024-02-23T07:45:15;2.60;;;1.10;;
3971;SDS011;2000;47.572;14.202;2024-02-23T07:47:42;1.10;;;0.93;;
3971;SDS011;2000;47.572;14.202;2024-02-23T07:50:09;0.70;;;0.70;;
3971;SDS011;2000;47.572;14.202;2024-02-23T07:52:36;2.00;;;0.70;;
3971;SDS011;2000;47.572;14.202;2024-02-23T07:55:03;1.33;;;0.60;;
3971;SDS011;2000;47.572;14.202;2024-02-23T07:57:32;0.60;;;0.57;;
3971;SDS011;2000;47.572;14.202;2024-02-23T07:59:59;0.40;;;0.40;;
3971;SDS011;2000;47.572;14.202;2024-02-23T08:02:37;2.73;;;0.53;;
3971;SDS011;2000;47.572;14.202;2024-02-23T08:05:05;0.53;;;0.53;;
3971;SDS011;2000;47.572;14.202;2024-02-23T08:07:33;2.17;;;0.70;;
3971;SDS011;2000;47.572;14.202;2024-02-23T08:10:00;0.67;;;0.60;;
3971;SDS011;2000;47.572;14.202;2024-02-23T08:12:29;0.87;;;0.40;;
3971;SDS011;2000;47.572;14.202;2024-02-23T08:14:56;4.53;;;0.40;;
3971;SDS011;2000;47.572;14.202;2024-02-23T08:17:23;0.90;;;0.57;;
3971;SDS011;2000;47.572;14.202;2024-02-23T08:19:52;5.33;;;0.50;;
3971;SDS011;2000;47.572;14.202;2024-02-23T08:22:19;0.60;;;0.40;;
3971;SDS011;2000;47.572;14.202;2024-02-23T08:24:46;2.80;;;0.80;;
3971;SDS011;2000;47.572;14.202;2024-02-23T08:27:13;0.60;;;0.60;;
3971;SDS011;2000;47.572;14.202;2024-02-23T08:29:40;0.60;;;0.60;;
3971;SDS011;2000;47.572;14.202;2024-02-23T08:32:08;0.50;;;0.50;;
3971;SDS011;2000;47.572;14.202;2024-02-23T08:34:35;0.30;;;0.20;;
3971;SDS011;2000;47.572;14.202;2024-02-23T08:37:02;0.80;;;0.80;;
3971;SDS011;2000;47.572;14.202;2024-02-23T08:39:29;7.20;;;1.13;;
3971;SDS011;2000;47.572;14.202;2024-02-23T08:41:56;1.60;;;1.10;;
3971;SDS011;2000;47.572;14.202;2024-02-23T08:44:23;2.33;;;1.90;;
3971;SDS011;2000;47.572;14.202;2024-02-23T08:46:50;0.83;;;0.70;;
3971;SDS011;2000;47.572;14.202;2024-02-23T08:49:17;2.23;;;0.33;;
3971;SDS011;2000;47.572;14.202;2024-02-23T08:51:45;0.40;;;0.30;;
3971;SDS011;2000;47.572;14.202;2024-02-23T08:54:12;3.27;;;0.30;;
3971;SDS011;2000;47.572;14.202;2024-02-23T08:56:39;0.40;;;0.30;;
3971;SDS011;2000;47.572;14.202;2024-02-23T08:59:09;1.40;;;0.40;;
3971;SDS011;2000;47.572;14.202;2024-02-23T09:01:36;0.60;;;0.60;;
3971;SDS011;2000;47.572;14.202;2024-02-23T09:04:03;0.90;;;0.90;;
3971;SDS011;2000;47.572;14.202;2024-02-23T09:06:30;1.43;;;1.30;;
3971;SDS011;2000;47.572;14.202;2024-02-23T09:09:05;1.63;;;1.10;;
3971;SDS011;2000;47.572;14.202;2024-02-23T09:11:32;2.20;;;1.23;;
3971;SDS011;2000;47.572;14.202;2024-02-23T09:13:59;1.50;;;1.20;;
3971;SDS011;2000;47.572;14.202;2024-02-23T09:16:26;2.67;;;1.13;;
3971;SDS011;2000;47.572;14.202;2024-02-23T09:18:54;1.80;;;1.60;;
3971;SDS011;2000;47.572;14.202;2024-02-23T09:21:21;2.13;;;1.20;;
3971;SDS011;2000;47.572;14.202;2024-02-23T09:23:48;8.53;;;0.70;;
3971;SDS011;2000;47.572;14.202;2024-02-23T09:26:15;2.10;;;0.70;;
3971;SDS011;2000;47.572;14.202;2024-02-23T09:28:42;0.60;;;0.53;;
3971;SDS011;2000;47.572;14.202;2024-02-23T09:31:11;0.50;;;0.40;;
3971;SDS011;2000;47.572;14.202;2024-02-23T09:33:39;4.03;;;2.30;;
3971;SDS011;2000;47.572;14.202;2024-02-23T09:36:06;1.33;;;0.97;;
3971;SDS011;2000;47.572;14.202;2024-02-23T09:38:33;1.20;;;0.87;;
3971;SDS011;2000;47.572;14.202;2024-02-23T09:41:00;0.87;;;0.70;;
3971;SDS011;2000;47.572;14.202;2024-02-23T09:43:30;1.60;;;1.27;;
3971;SDS011;2000;47.572;14.202;2024-02-23T09:45:59;0.83;;;0.77;;
3971;SDS011;2000;47.572;14.202;2024-02-23T09:48:26;5.10;;;0.90;;
3971;SDS011;2000;47.572;14.202;2024-02-23T09:50:53;1.17;;;1.07;;
3971;SDS011;2000;47.572;14.202;2024-02-23T09:53:23;0.57;;;0.57;;
3971;SDS011;2000;47.572;14.202;2024-02-23T09:55:50;8.33;;;0.80;;
3971;SDS011;2000;47.572;14.202;2024-02-23T09:58:18;0.40;;;0.40;;
3971;SDS011;2000;47.572;14.202;2024-02-23T10:00:46;0.97;;;0.40;;
3971;SDS011;2000;47.572;14.202;2024-02-23T10:03:13;0.57;;;0.40;;
3971;SDS011;2000;47.572;14.202;2024-02-23T10:05:41;2.17;;;0.40;;
3971;SDS011;2000;47.572;14.202;2024-02-23T10:08:09;2.20;;;0.93;;
3971;SDS011;2000;47.572;14.202;2024-02-23T10:10:36;1.63;;;0.73;;
3971;SDS011;2000;47.572;14.202;2024-02-23T10:13:05;4.40;;;0.80;;
3971;SDS011;2000;47.572;14.202;2024-02-23T10:15:32;2.00;;;0.60;;
3971;SDS011;2000;47.572;14.202;2024-02-23T10:17:59;1.20;;;0.70;;
3971;SDS011;2000;47.572;14.202;2024-02-23T10:20:27;2.13;;;0.43;;
3971;SDS011;2000;47.572;14.202;2024-02-23T10:22:54;0.40;;;0.40;;
3971;SDS011;2000;47.572;14.202;2024-02-23T10:25:22;2.10;;;1.03;;
3971;SDS011;2000;47.572;14.202;2024-02-23T10:27:49;0.87;;;0.87;;
3971;SDS011;2000;47.572;14.202;2024-02-23T10:30:16;0.53;;;0.50;;
3971;SDS011;2000;47.572;14.202;2024-02-23T10:32:43;0.50;;;0.30;;
3971;SDS011;2000;47.572;14.202;2024-02-23T10:35:13;0.90;;;0.47;;
3971;SDS011;2000;47.572;14.202;2024-02-23T10:37:42;0.60;;;0.30;;
3971;SDS011;2000;47.572;14.202;2024-02-23T10:40:14;6.27;;;0.70;;
3971;SDS011;2000;47.572;14.202;2024-02-23T10:42:43;1.67;;;0.70;;
3971;SDS011;2000;47.572;14.202;2024-02-23T10:45:17;1.10;;;0.60;;
3971;SDS011;2000;47.572;14.202;2024-02-23T10:47:50;6.80;;;0.83;;
3971;SDS011;2000;47.572;14.202;2024-02-23T10:50:17;4.10;;;0.70;;
3971;SDS011;2000;47.572;14.202;2024-02-23T10:52:46;3.13;;;0.53;;
3971;SDS011;2000;47.572;14.202;2024-02-23T10:55:14;6.80;;;2.00;;
3971;SDS011;2000;47.572;14.202;2024-02-23T10:57:41;2.93;;;1.03;;
3971;SDS011;2000;47.572;14.202;2024-02-23T11:00:08;0.70;;;0.50;;
3971;SDS011;2000;47.572;14.202;2024-02-23T11:02:43;5.80;;;0.83;;
3971;SDS011;2000;47.572;14.202;2024-02-23T11:05:11;0.70;;;0.60;;
3971;SDS011;2000;47.572;14.202;2024-02-23T11:07:40;2.50;;;0.50;;
3971;SDS011;2000;47.572;14.202;2024-02-23T11:10:08;0.53;;;0.47;;
3971;SDS011;2000;47.572;14.202;2024-02-23T11:12:38;0.50;;;0.20;;
3971;SDS011;2000;47.572;14.202;2024-02-23T11:15:05;0.30;;;0.20;;
3971;SDS011;2000;47.572;14.202;2024-02-23T11:17:33;0.50;;;0.33;;
3971;SDS011;2000;47.572;14.202;2024-02-23T11:20:03;0.40;;;0.27;;
3971;SDS011;2000;47.572;14.202;2024-02-23T11:22:31;3.90;;;0.67;;
3971;SDS011;2000;47.572;14.202;2024-02-23T11:25:05;0.97;;;0.20;;
3971;SDS011;2000;47.572;14.202;2024-02-23T11:27:35;0.30;;;0.20;;
3971;SDS011;2000;47.572;14.202;2024-02-23T11:30:09;0.30;;;0.30;;
3971;SDS011;2000;47.572;14.202;2024-02-23T11:32:39;5.80;;;0.60;;
3971;SDS011;2000;47.572;14.202;2024-02-23T11:35:14;3.43;;;0.30;;
3971;SDS011;2000;47.572;14.202;2024-02-23T11:40:23;1.57;;;0.30;;
3971;SDS011;2000;47.572;14.202;2024-02-23T11:42:52;1.90;;;0.50;;
3971;SDS011;2000;47.572;14.202;2024-02-23T11:45:19;5.90;;;0.50;;
3971;SDS011;2000;47.572;14.202;2024-02-23T11:47:46;0.60;;;0.47;;
3971;SDS011;2000;47.572;14.202;2024-02-23T11:50:13;0.50;;;0.50;;
3971;SDS011;2000;47.572;14.202;2024-02-23T11:52:42;0.90;;;0.40;;
3971;SDS011;2000;47.572;14.202;2024-02-23T11:55:09;0.97;;;0.67;;
3971;SDS011;2000;47.572;14.202;2024-02-23T11:57:36;3.60;;;0.40;;
3971;SDS011;2000;47.572;14.202;2024-02-23T12:00:13;3.33;;;0.30;;
3971;SDS011;2000;47.572;14.202;2024-02-23T12:02:42;0.40;;;0.40;;
3971;SDS011;2000;47.572;14.202;2024-02-23T12:05:11;0.40;;;0.30;;
3971;SDS011;2000;47.572;14.202;2024-02-23T12:07:38;0.30;;;0.20;;
3971;SDS011;2000;47.572;14.202;2024-02-23T12:10:07;0.30;;;0.30;;
3971;SDS011;2000;47.572;14.202;2024-02-23T12:12:34;5.70;;;0.40;;
3971;SDS011;2000;47.572;14.202;2024-02-23T12:15:01;1.63;;;0.50;;
3971;SDS011;2000;47.572;14.202;2024-02-23T12:17:28;1.70;;;0.40;;
3971;SDS011;2000;47.572;14.202;2024-02-23T12:19:59;1.80;;;1.20;;
3971;SDS011;2000;47.572;14.202;2024-02-23T12:22:27;5.40;;;0.87;;
3971;SDS011;2000;47.572;14.202;2024-02-23T12:24:58;1.10;;;0.90;;
3971;SDS011;2000;47.572;14.202;2024-02-23T12:27:25;0.77;;;0.77;;
3971;SDS011;2000;47.572;14.202;2024-02-23T12:29:56;3.10;;;1.13;;
3971;SDS011;2000;47.572;14.202;2024-02-23T12:32:23;4.67;;;0.83;;
3971;SDS011;2000;47.572;14.202;2024-02-23T12:34:50;3.50;;;0.70;;
3971;SDS011;2000;47.572;14.202;2024-02-23T12:37:19;1.77;;;0.60;;
3971;SDS011;2000;47.572;14.202;2024-02-23T12:39:49;4.10;;;1.43;;
3971;SDS011;2000;47.572;14.202;2024-02-23T12:42:17;1.23;;;0.60;;
3971;SDS011;2000;47.572;14.202;2024-02-23T12:44:45;1.90;;;0.80;;
3971;SDS011;2000;47.572;14.202;2024-02-23T12:47:12;9.53;;;2.07;;
3971;SDS011;2000;47.572;14.202;2024-02-23T12:49:39;1.90;;;0.97;;
3971;SDS011;2000;47.572;14.202;2024-02-23T12:52:11;12.13;;;1.37;;
3971;SDS011;2000;47.572;14.202;2024-02-23T12:54:38;3.20;;;1.33;;
3971;SDS011;2000;47.572;14.202;2024-02-23T12:57:06;4.67;;;0.57;;
3971;SDS011;2000;47.572;14.202;2024-02-23T12:59:33;8.20;;;2.83;;
3971;SDS011;2000;47.572;14.202;2024-02-23T13:02:01;1.27;;;0.67;;
3971;SDS011;2000;47.572;14.202;2024-02-23T13:04:28;0.80;;;0.53;;
3971;SDS011;2000;47.572;14.202;2024-02-23T13:06:55;8.03;;;1.10;;
3971;SDS011;2000;47.572;14.202;2024-02-23T13:09:23;2.93;;;0.40;;
3971;SDS011;2000;47.572;14.202;2024-02-23T13:11:49;1.30;;;0.50;;
3971;SDS011;2000;47.572;14.202;2024-02-23T13:14:17;0.70;;;0.47;;
3971;SDS011;2000;47.572;14.202;2024-02-23T13:16:44;12.40;;;2.00;;
3971;SDS011;2000;47.572;14.202;2024-02-23T13:19:11;3.03;;;1.53;;
3971;SDS011;2000;47.572;14.202;2024-02-23T13:21:38;8.93;;;1.60;;
3971;SDS011;2000;47.572;14.202;2024-02-23T13:24:05;8.07;;;1.60;;
3971;SDS011;2000;47.572;14.202;2024-02-23T13:26:32;7.30;;;2.80;;
3971;SDS011;2000;47.572;14.202;2024-02-23T13:29:00;4.07;;;0.63;;
3971;SDS011;2000;47.572;14.202;2024-02-23T13:31:27;12.83;;;1.00;;
3971;SDS011;2000;47.572;14.202;2024-02-23T13:33:54;3.10;;;0.77;;
3971;SDS011;2000;47.572;14.202;2024-02-23T13:36:21;0.93;;;0.87;;
3971;SDS011;2000;47.572;14.202;2024-02-23T13:38:48;4.97;;;2.30;;
3971;SDS011;2000;47.572;14.202;2024-02-23T13:41:17;3.60;;;1.27;;
3971;SDS011;2000;47.572;14.202;2024-02-23T13:43:44;3.80;;;0.80;;
3971;SDS011;2000;47.572;14.202;2024-02-23T13:46:12;7.13;;;1.00;;
3971;SDS011;2000;47.572;14.202;2024-02-23T13:48:39;3.30;;;0.70;;
3971;SDS011;2000;47.572;14.202;2024-02-23T13:51:06;11.53;;;0.67;;
3971;SDS011;2000;47.572;14.202;2024-02-23T13:53:33;6.53;;;1.20;;
3971;SDS011;2000;47.572;14.202;2024-02-23T13:56:03;6.83;;;1.10;;
3971;SDS011;2000;47.572;14.202;2024-02-23T13:58:30;2.73;;;0.40;;
3971;SDS011;2000;47.572;14.202;2024-02-23T14:00:57;2.27;;;0.77;;
3971;SDS011;2000;47.572;14.202;2024-02-23T14:03:24;1.83;;;0.60;;
3971;SDS011;2000;47.572;14.202;2024-02-23T14:05:51;2.60;;;0.63;;
3971;SDS011;2000;47.572;14.202;2024-02-23T14:08:18;1.60;;;0.80;;
3971;SDS011;2000;47.572;14.202;2024-02-23T14:10:45;0.77;;;0.40;;
3971;SDS011;2000;47.572;14.202;2024-02-23T14:13:13;0.47;;;0.20;;
3971;SDS011;2000;47.572;14.202;2024-02-23T14:15:40;0.93;;;0.50;;
3971;SDS011;2000;47.572;14.202;2024-02-23T14:18:07;0.93;;;0.60;;
3971;SDS011;2000;47.572;14.202;2024-02-23T14:20:34;0.30;;;0.30;;
3971;SDS011;2000;47.572;14.202;2024-02-23T14:23:01;0.60;;;0.30;;
3971;SDS011;2000;47.572;14.202;2024-02-23T14:25:28;0.67;;;0.40;;
3971;SDS011;2000;47.572;14.202;2024-02-23T14:27:55;0.60;;;0.30;;
3971;SDS011;2000;47.572;14.202;2024-02-23T14:30:22;0.53;;;0.40;;
3971;SDS011;2000;47.572;14.202;2024-02-23T14:32:49;0.30;;;0.23;;
3971;SDS011;2000;47.572;14.202;2024-02-23T14:35:17;0.20;;;0.20;;
3971;SDS011;2000;47.572;14.202;2024-02-23T14:37:44;0.30;;;0.20;;
3971;SDS011;2000;47.572;14.202;2024-02-23T14:40:11;0.40;;;0.20;;
3971;SDS011;2000;47.572;14.202;2024-02-23T14:42:40;0.30;;;0.20;;
3971;SDS011;2000;47.572;14.202;2024-02-23T14:45:07;0.60;;;0.20;;
3971;SDS011;2000;47.572;14.202;2024-02-23T14:47:35;3.03;;;0.20;;
3971;SDS011;2000;47.572;14.202;2024-02-23T14:50:11;0.30;;;0.20;;
3971;SDS011;2000;47.572;14.202;2024-02-23T14:52:39;0.43;;;0.20;;
3971;SDS011;2000;47.572;14.202;2024-02-23T14:55:06;0.20;;;0.20;;
3971;SDS011;2000;47.572;14.202;2024-02-23T14:57:33;0.30;;;0.30;;
3971;SDS011;2000;47.572;14.202;2024-02-23T15:00:00;0.43;;;0.20;;
3971;SDS011;2000;47.572;14.202;2024-02-23T15:02:27;0.20;;;0.20;;
3971;SDS011;2000;47.572;14.202;2024-02-23T15:04:55;0.40;;;0.17;;
3971;SDS011;2000;47.572;14.202;2024-02-23T15:07:22;0.70;;;0.30;;